Time;durP1;ratioP1;P1;durP2;ratioP2;P2;SDS_P1;SDS_P2;PMS_P1;PMS_P2;Temp;Humidity;BMP_temperature;BMP_pressure;BME280_temperature;BME280_humidity;BME280_pressure;Samples;Min_cycle;Max_cycle;Signal;HPM_P1;HPM_P2
2021/05/28 00:00:31;;;;;;;12.70;6.47;;;11.40;78.40;;;;;;5098761;28;20187;-82
2021/05/28 00:02:57;;;;;;;17.23;8.87;;;11.40;78.40;;;;;;5101709;28;20441;-82
2021/05/28 00:05:23;;;;;;;11.90;8.97;;;11.40;78.30;;;;;;5112715;28;20445;-81
2021/05/28 00:07:48;;;;;;;17.00;8.00;;;11.40;78.00;;;;;;5122207;28;20445;-83
2021/05/28 00:10:14;;;;;;;16.47;8.67;;;11.30;78.10;;;;;;5120530;28;20176;-81
2021/05/28 00:12:41;;;;;;;10.83;6.60;;;11.30;78.20;;;;;;5125098;28;20432;-81
2021/05/28 00:15:09;;;;;;;14.10;8.43;;;11.30;78.20;;;;;;5127421;28;20463;-82
2021/05/28 00:17:35;;;;;;;11.80;8.20;;;11.30;78.10;;;;;;5127560;28;20186;-82
2021/05/28 00:20:01;;;;;;;15.53;7.50;;;11.20;78.10;;;;;;5132437;28;20198;-81
2021/05/28 00:22:27;;;;;;;11.32;6.75;;;11.20;78.30;;;;;;5129542;28;20444;-82
2021/05/28 00:24:53;;;;;;;22.13;7.83;;;11.20;78.50;;;;;;5121367;28;20171;-82
2021/05/28 00:27:23;;;;;;;19.83;8.37;;;11.20;78.50;;;;;;5120196;28;20288;-82
2021/05/28 00:29:49;;;;;;;16.02;8.52;;;11.20;78.60;;;;;;5119942;28;20417;-82
2021/05/28 00:32:14;;;;;;;14.30;8.97;;;11.30;78.60;;;;;;5119296;28;20199;-82
2021/05/28 00:34:40;;;;;;;14.57;8.03;;;11.40;78.20;;;;;;5119446;28;20199;-82
2021/05/28 00:37:06;;;;;;;13.67;8.60;;;11.30;77.80;;;;;;5119875;28;20569;-82
2021/05/28 00:39:31;;;;;;;12.93;8.30;;;11.30;77.90;;;;;;5119558;28;20537;-82
2021/05/28 00:41:57;;;;;;;21.20;8.37;;;11.30;77.90;;;;;;5119879;28;20536;-82
2021/05/28 00:44:28;;;;;;;12.90;7.17;;;11.20;78.40;;;;;;5120508;28;20179;-82
2021/05/28 00:46:57;;;;;;;13.18;7.80;;;11.20;77.70;;;;;;5119604;28;20174;-82
2021/05/28 00:49:22;;;;;;;16.90;8.90;;;11.20;77.90;;;;;;5119844;28;20610;-81
2021/05/28 00:51:48;;;;;;;15.17;8.33;;;11.30;78.00;;;;;;5119374;28;20187;-82
2021/05/28 00:54:14;;;;;;;20.77;7.88;;;11.30;77.80;;;;;;5119307;28;20207;-82
2021/05/28 00:56:40;;;;;;;15.80;7.30;;;11.30;77.70;;;;;;5119980;28;20236;-82
2021/05/28 00:59:07;;;;;;;14.00;9.77;;;11.30;77.70;;;;;;5120521;28;20178;-81
2021/05/28 01:01:34;;;;;;;21.45;10.82;;;11.30;77.70;;;;;;5118708;28;20262;-81
2021/05/28 01:04:00;;;;;;;17.33;9.75;;;11.20;77.70;;;;;;5118961;28;20195;-81
2021/05/28 01:06:26;;;;;;;23.30;10.00;;;11.20;77.90;;;;;;5101114;28;20183;-82
2021/05/28 01:08:53;;;;;;;21.63;9.47;;;11.10;78.20;;;;;;5098492;28;20639;-81
2021/05/28 01:11:19;;;;;;;16.88;9.82;;;11.10;78.20;;;;;;5098351;28;20429;-82
2021/05/28 01:13:45;;;;;;;17.73;10.73;;;11.20;78.10;;;;;;5098274;28;20199;-82
2021/05/28 01:16:11;;;;;;;19.23;9.53;;;11.20;77.90;;;;;;5098602;28;20291;-82
2021/05/28 01:18:36;;;;;;;14.90;10.57;;;11.10;78.10;;;;;;5098968;28;20178;-82
2021/05/28 01:21:02;;;;;;;25.47;13.17;;;11.20;78.10;;;;;;5098018;28;20171;-82
2021/05/28 01:23:28;;;;;;;19.55;9.95;;;11.10;78.10;;;;;;5097822;28;20192;-82
2021/05/28 01:25:54;;;;;;;23.03;11.27;;;11.10;78.20;;;;;;5098640;28;20205;-82
2021/05/28 01:28:20;;;;;;;19.60;10.50;;;11.00;78.20;;;;;;5099227;28;20475;-82
2021/05/28 01:30:45;;;;;;;33.77;11.10;;;11.10;78.20;;;;;;5099303;28;20184;-82
2021/05/28 01:33:11;;;;;;;15.03;10.23;;;11.10;78.10;;;;;;5109341;28;20203;-83
2021/05/28 01:35:37;;;;;;;21.10;10.60;;;11.10;78.00;;;;;;5104041;28;20838;-82
2021/05/28 01:38:05;;;;;;;18.42;10.30;;;11.10;77.90;;;;;;5097583;28;20176;-82
2021/05/28 01:40:32;;;;;;;17.90;10.18;;;11.10;77.90;;;;;;5097050;28;20611;-81
2021/05/28 01:42:58;;;;;;;25.67;11.68;;;10.90;78.00;;;;;;5097579;28;20203;-80
2021/05/28 01:45:24;;;;;;;23.20;11.40;;;10.90;78.40;;;;;;5099447;28;20230;-81
2021/05/28 01:47:50;;;;;;;20.08;11.18;;;10.90;78.70;;;;;;5098365;28;20429;-82
2021/05/28 01:50:16;;;;;;;32.40;11.90;;;10.70;78.80;;;;;;5098390;28;20670;-82
2021/05/28 01:52:42;;;;;;;23.23;12.40;;;10.80;79.10;;;;;;5099038;28;20191;-82
2021/05/28 01:55:13;;;;;;;22.05;11.45;;;10.80;79.20;;;;;;5098242;28;20461;-81
2021/05/28 01:57:39;;;;;;;19.35;12.13;;;10.80;79.40;;;;;;5099012;28;20172;-81
2021/05/28 02:00:10;;;;;;;20.83;11.25;;;10.70;79.40;;;;;;5099123;28;20176;-82
2021/05/28 02:02:36;;;;;;;26.92;12.20;;;10.70;79.50;;;;;;5100174;28;20211;-81
2021/05/28 02:05:03;;;;;;;20.30;12.73;;;10.60;79.70;;;;;;5107012;28;20172;-82
2021/05/28 02:07:29;;;;;;;19.67;11.15;;;10.60;80.00;;;;;;5119747;28;20195;-81
2021/05/28 02:09:55;;;;;;;26.70;12.77;;;10.60;80.10;;;;;;5119074;28;20178;-82
2021/05/28 02:12:21;;;;;;;22.73;11.83;;;10.60;80.20;;;;;;5123450;28;20202;-81
2021/05/28 02:14:47;;;;;;;25.40;12.80;;;10.60;80.20;;;;;;5124458;28;20191;-82
2021/05/28 02:17:12;;;;;;;20.67;12.00;;;10.50;80.40;;;;;;5122279;28;20653;-82
2021/05/28 02:19:38;;;;;;;25.27;12.93;;;10.50;80.40;;;;;;5122124;28;20486;-81
2021/05/28 02:22:06;;;;;;;29.93;14.77;;;10.50;81.20;;;;;;5123556;28;20168;-83
2021/05/28 02:24:31;;;;;;;28.55;14.05;;;10.50;80.60;;;;;;5122386;28;20658;-82
2021/05/28 02:26:57;;;;;;;28.73;15.87;;;10.60;80.60;;;;;;5123243;28;20278;-81
2021/05/28 02:29:23;;;;;;;28.90;14.77;;;10.60;80.40;;;;;;5122401;28;20183;-82
2021/05/28 02:31:49;;;;;;;25.40;14.38;;;10.60;80.20;;;;;;5121129;28;20274;-82
2021/05/28 02:34:15;;;;;;;27.70;13.50;;;10.60;80.00;;;;;;5119200;28;20262;-82
2021/05/28 02:36:41;;;;;;;22.77;13.87;;;10.60;79.90;;;;;;5117497;28;20274;-83
2021/05/28 02:39:07;;;;;;;25.87;14.40;;;10.60;79.80;;;;;;5122251;28;20201;-83
2021/05/28 02:41:34;;;;;;;22.48;13.57;;;10.60;79.70;;;;;;5119480;28;20178;-83
2021/05/28 02:44:00;;;;;;;26.52;14.38;;;10.60;79.60;;;;;;5100091;28;20248;-82
2021/05/28 02:46:26;;;;;;;25.17;14.52;;;10.70;79.70;;;;;;5107706;28;20213;-82
2021/05/28 02:48:52;;;;;;;23.17;14.97;;;10.60;79.40;;;;;;5109333;28;20180;-82
2021/05/28 02:51:19;;;;;;;29.27;16.23;;;10.50;79.50;;;;;;5102073;28;20414;-83
2021/05/28 02:53:45;;;;;;;26.40;15.40;;;10.50;79.50;;;;;;5098715;28;20460;-83
2021/05/28 02:56:12;;;;;;;24.10;15.60;;;10.40;79.80;;;;;;5097588;28;20208;-83
2021/05/28 02:58:38;;;;;;;27.02;14.75;;;10.40;80.10;;;;;;5098330;28;20895;-82
2021/05/28 03:01:03;;;;;;;28.93;16.87;;;10.50;80.10;;;;;;5102194;28;20200;-82
2021/05/28 03:03:29;;;;;;;22.83;15.80;;;10.50;80.00;;;;;;5100017;28;20196;-81
2021/05/28 03:05:55;;;;;;;29.57;15.93;;;10.50;79.90;;;;;;5102280;28;20176;-82
2021/05/28 03:08:21;;;;;;;36.53;17.33;;;10.40;79.70;;;;;;5100333;28;20445;-82
2021/05/28 03:10:47;;;;;;;35.83;16.43;;;10.50;79.80;;;;;;5100606;28;20207;-83
2021/05/28 03:13:14;;;;;;;27.83;15.55;;;10.40;79.80;;;;;;5099789;28;20203;-82
2021/05/28 03:15:40;;;;;;;30.40;16.90;;;10.30;79.80;;;;;;5100246;28;20233;-82
2021/05/28 03:18:12;;;;;;;42.10;16.83;;;10.30;80.20;;;;;;5100080;28;20221;-82
2021/05/28 03:20:41;;;;;;;41.85;17.05;;;10.20;80.40;;;;;;5101635;28;20152;-82
2021/05/28 03:23:07;;;;;;;30.00;16.23;;;10.20;80.60;;;;;;5099516;28;20245;-82
2021/05/28 03:25:33;;;;;;;32.58;16.67;;;10.20;80.70;;;;;;5099876;28;20275;-82
2021/05/28 03:27:59;;;;;;;26.90;17.00;;;10.20;80.80;;;;;;5099801;28;20172;-83
2021/05/28 03:30:25;;;;;;;29.03;16.47;;;10.20;80.80;;;;;;5100015;28;20252;-83
2021/05/28 03:32:51;;;;;;;30.55;17.90;;;10.20;80.70;;;;;;5100648;28;20458;-83
2021/05/28 03:35:17;;;;;;;37.63;18.17;;;10.10;80.90;;;;;;5099542;28;20215;-83
2021/05/28 03:37:43;;;;;;;30.07;16.03;;;10.20;81.00;;;;;;5099965;28;20179;-83
2021/05/28 03:40:10;;;;;;;32.25;18.40;;;10.30;80.90;;;;;;5101241;28;20175;-83
2021/05/28 03:42:36;;;;;;;42.63;17.27;;;10.30;80.60;;;;;;5099065;28;20390;-83
2021/05/28 03:45:04;;;;;;;33.58;16.80;;;10.30;80.40;;;;;;5099768;28;20258;-83
2021/05/28 03:47:30;;;;;;;28.55;18.20;;;10.40;80.30;;;;;;5099550;28;20177;-83
2021/05/28 03:49:56;;;;;;;25.93;15.57;;;10.30;79.90;;;;;;5100972;28;20542;-83
2021/05/28 03:52:21;;;;;;;25.40;16.10;;;10.40;79.80;;;;;;5100476;28;20826;-82
2021/05/28 03:54:47;;;;;;;20.70;14.83;;;10.40;79.50;;;;;;5100926;28;20204;-82
2021/05/28 03:57:13;;;;;;;27.67;15.10;;;10.40;79.40;;;;;;5102816;28;20168;-82
2021/05/28 03:59:39;;;;;;;29.53;15.10;;;10.40;79.30;;;;;;5106535;28;20186;-83
2021/05/28 04:02:04;;;;;;;27.97;14.67;;;10.40;79.20;;;;;;5111608;28;20417;-83
2021/05/28 04:04:31;;;;;;;26.73;15.07;;;10.30;79.20;;;;;;5104770;28;20183;-82
2021/05/28 04:06:58;;;;;;;28.50;16.67;;;10.20;79.30;;;;;;5121693;28;20175;-82
2021/05/28 04:09:23;;;;;;;31.05;17.65;;;10.30;79.60;;;;;;5120792;28;20270;-82
2021/05/28 04:11:49;;;;;;;29.80;17.03;;;10.30;79.60;;;;;;5119604;28;20211;-83
2021/05/28 04:14:15;;;;;;;29.50;16.60;;;10.30;79.50;;;;;;5120980;28;20175;-83
2021/05/28 04:16:41;;;;;;;32.87;18.27;;;10.20;79.50;;;;;;5119791;28;20221;-83
2021/05/28 04:19:07;;;;;;;30.67;17.00;;;10.30;79.70;;;;;;5121699;28;20163;-82
2021/05/28 04:21:33;;;;;;;32.88;16.05;;;10.50;79.50;;;;;;5120126;28;20175;-82
2021/05/28 04:24:00;;;;;;;30.90;17.10;;;10.60;79.20;;;;;;5121489;28;20199;-82
2021/05/28 04:26:25;;;;;;;25.58;15.82;;;10.70;79.10;;;;;;5121230;28;20186;-81
2021/05/28 04:28:51;;;;;;;27.50;17.10;;;10.70;78.90;;;;;;5122331;28;20187;-83
2021/05/28 04:31:17;;;;;;;23.07;16.20;;;10.70;78.80;;;;;;5128745;28;20551;-82
2021/05/28 04:33:42;;;;;;;29.83;16.30;;;10.70;78.90;;;;;;5129827;28;20214;-83
2021/05/28 04:36:08;;;;;;;30.13;14.80;;;10.80;78.70;;;;;;5126577;28;20211;-82
2021/05/28 04:38:36;;;;;;;24.83;15.03;;;10.80;78.50;;;;;;5120295;28;20175;-82
2021/05/28 04:41:02;;;;;;;21.73;15.65;;;11.00;78.50;;;;;;5119182;28;20208;-83
2021/05/28 04:43:27;;;;;;;25.63;14.00;;;11.00;78.00;;;;;;5119523;28;20682;-82
2021/05/28 04:45:53;;;;;;;26.33;15.73;;;11.00;77.60;;;;;;5120136;28;20412;-83
2021/05/28 04:48:19;;;;;;;30.27;14.20;;;11.00;77.50;;;;;;5119390;28;20179;-83
2021/05/28 04:50:45;;;;;;;26.90;14.00;;;11.00;77.40;;;;;;5119502;28;20190;-82
2021/05/28 04:53:11;;;;;;;23.03;13.30;;;11.20;77.20;;;;;;5121856;27;20198;-82
2021/05/28 04:55:37;;;;;;;22.63;14.75;;;11.30;77.20;;;;;;5120144;28;20331;-81
2021/05/28 04:58:03;;;;;;;29.07;14.00;;;11.50;76.90;;;;;;5122095;28;20626;-81
2021/05/28 05:00:30;;;;;;;25.25;13.95;;;11.60;76.60;;;;;;5120013;28;20221;-82
2021/05/28 05:02:56;;;;;;;23.90;15.55;;;11.90;76.00;;;;;;5124386;28;20183;-82
2021/05/28 05:05:23;;;;;;;25.00;12.90;;;12.00;75.10;;;;;;5127317;28;20175;-82
2021/05/28 05:07:48;;;;;;;25.55;13.52;;;12.10;74.80;;;;;;5126536;28;20743;-82
2021/05/28 05:10:15;;;;;;;29.93;15.80;;;12.20;74.30;;;;;;5122620;28;20179;-82
2021/05/28 05:12:41;;;;;;;18.45;11.85;;;12.40;73.80;;;;;;5119410;28;20203;-81
2021/05/28 05:15:08;;;;;;;20.40;12.95;;;12.40;73.00;;;;;;5129887;28;20201;-82
2021/05/28 05:17:34;;;;;;;23.05;12.68;;;12.70;73.00;;;;;;5127823;28;20183;-82
2021/05/28 05:20:00;;;;;;;19.95;12.40;;;13.10;72.60;;;;;;5119554;28;20179;-82
2021/05/28 05:22:26;;;;;;;21.00;11.52;;;13.60;71.30;;;;;;5118828;28;20252;-83
2021/05/28 05:24:53;;;;;;;13.57;10.70;;;14.30;69.70;;;;;;5118521;28;20665;-83
2021/05/28 05:27:19;;;;;;;21.45;11.15;;;14.90;67.10;;;;;;5116771;28;20413;-84
2021/05/28 05:29:45;;;;;;;20.65;11.18;;;15.80;65.10;;;;;;5115409;28;20671;-83
2021/05/28 05:32:11;;;;;;;18.53;10.50;;;16.50;62.50;;;;;;5114936;28;20240;-85
2021/05/28 05:34:37;;;;;;;14.02;9.25;;;16.70;60.40;;;;;;5115609;28;20221;-84
2021/05/28 05:37:03;;;;;;;13.90;11.43;;;16.80;59.20;;;;;;5114117;28;20653;-84
2021/05/28 05:39:32;;;;;;;18.63;10.10;;;16.80;58.50;;;;;;5114448;28;20179;-84
2021/05/28 05:42:00;;;;;;;21.63;11.85;;;16.70;58.30;;;;;;5112941;28;20420;-86
2021/05/28 05:44:26;;;;;;;20.42;10.95;;;16.60;58.90;;;;;;5111736;28;20653;-84
2021/05/28 05:46:51;;;;;;;16.30;12.10;;;16.40;58.90;;;;;;5095339;28;20266;-85
2021/05/28 05:49:17;;;;;;;19.23;12.50;;;16.20;59.70;;;;;;5092391;28;20184;-85
2021/05/28 05:51:43;;;;;;;25.90;13.43;;;15.90;60.50;;;;;;5092033;28;20642;-84
2021/05/28 05:54:09;;;;;;;31.67;14.67;;;15.60;61.30;;;;;;5093093;28;20218;-84
2021/05/28 05:56:34;;;;;;;24.40;16.17;;;15.00;62.40;;;;;;5093873;28;20172;-84
2021/05/28 05:59:00;;;;;;;25.07;14.23;;;14.70;63.70;;;;;;5093759;28;20253;-84
2021/05/28 06:01:26;;;;;;;28.13;14.73;;;14.40;64.50;;;;;;5091979;28;20456;-85
2021/05/28 06:03:52;;;;;;;22.20;12.43;;;14.10;65.00;;;;;;5092062;28;20445;-86
2021/05/28 06:06:18;;;;;;;19.90;13.33;;;13.90;66.70;;;;;;5093595;28;20183;-85
2021/05/28 06:08:44;;;;;;;25.00;13.67;;;13.70;67.40;;;;;;5093124;28;20172;-85
2021/05/28 06:11:09;;;;;;;21.38;12.75;;;13.60;68.20;;;;;;5091752;28;20471;-85
2021/05/28 06:13:35;;;;;;;23.30;14.63;;;13.30;69.00;;;;;;5094803;28;20584;-85
2021/05/28 06:16:02;;;;;;;24.80;13.33;;;13.20;70.00;;;;;;5092744;28;20209;-85
2021/05/28 06:18:28;;;;;;;23.60;14.13;;;13.10;70.40;;;;;;5093560;28;20901;-85
2021/05/28 06:20:54;;;;;;;22.17;13.47;;;13.00;70.70;;;;;;5077235;28;20184;-84
2021/05/28 06:23:20;;;;;;;24.50;13.67;;;12.90;71.30;;;;;;5094155;28;20438;-85
2021/05/28 06:25:47;;;;;;;22.80;13.83;;;13.10;72.10;;;;;;5093607;28;20183;-86
2021/05/28 06:28:13;;;;;;;20.77;14.55;;;13.50;71.50;;;;;;5106603;28;20416;-84
2021/05/28 06:30:39;;;;;;;23.20;15.43;;;13.60;70.70;;;;;;5096340;28;20224;-87
2021/05/28 06:33:07;;;;;;;33.45;18.77;;;13.90;70.40;;;;;;5091223;28;20204;-86
2021/05/28 06:35:33;;;;;;;22.85;14.38;;;14.30;70.00;;;;;;5073710;28;20215;-87
2021/05/28 06:37:59;;;;;;;23.85;14.25;;;14.70;69.30;;;;;;5080847;28;20164;-87
2021/05/28 06:40:25;;;;;;;23.40;15.83;;;15.00;67.60;;;;;;5093434;28;20249;-88
2021/05/28 06:42:51;;;;;;;22.20;13.73;;;15.10;66.00;;;;;;5094192;28;20196;-88
2021/05/28 06:45:18;;;;;;;28.38;13.38;;;15.30;65.80;;;;;;5095086;28;20410;-88
2021/05/28 06:47:45;;;;;;;25.52;14.70;;;15.50;65.50;;;;;;5093289;28;20712;-84
2021/05/28 06:50:12;;;;;;;28.23;14.15;;;15.70;65.30;;;;;;5096213;28;20183;-85
2021/05/28 06:52:38;;;;;;;25.45;10.95;;;15.90;64.80;;;;;;5091889;28;20253;-87
2021/05/28 06:55:04;;;;;;;18.80;9.17;;;16.30;64.30;;;;;;5091774;28;20216;-87
2021/05/28 06:57:30;;;;;;;10.48;8.40;;;16.60;63.00;;;;;;5093906;28;20421;-87
2021/05/28 06:59:56;;;;;;;13.57;9.13;;;16.90;62.20;;;;;;5095442;28;20179;-87
2021/05/28 07:02:22;;;;;;;11.60;8.33;;;17.30;61.30;;;;;;5095057;28;20192;-87
2021/05/28 07:04:48;;;;;;;10.85;8.60;;;17.50;60.00;;;;;;5102744;28;20202;-87
2021/05/28 07:07:14;;;;;;;16.63;8.20;;;17.80;58.80;;;;;;5117351;28;20543;-87
2021/05/28 07:09:40;;;;;;;13.70;8.67;;;18.10;57.70;;;;;;5116955;28;20171;-87
2021/05/28 07:12:05;;;;;;;12.23;7.50;;;18.10;57.00;;;;;;5117909;28;20210;-87
2021/05/28 07:14:31;;;;;;;13.50;7.70;;;18.20;56.80;;;;;;5117175;28;20604;-87
2021/05/28 07:16:57;;;;;;;9.80;7.90;;;18.50;56.70;;;;;;5116920;28;20413;-87
2021/05/28 07:19:23;;;;;;;13.10;7.40;;;18.60;56.00;;;;;;5117048;28;20450;-88
2021/05/28 07:21:48;;;;;;;6.80;6.10;;;18.40;54.70;;;;;;5116972;28;20679;-88
2021/05/28 07:24:14;;;;;;;13.93;6.80;;;18.20;55.00;;;;;;5117284;28;20175;-88
2021/05/28 07:26:40;;;;;;;11.13;7.30;;;18.10;55.70;;;;;;5117326;28;20173;-87
2021/05/28 07:29:06;;;;;;;12.20;6.80;;;17.70;55.60;;;;;;5117044;28;20175;-87
2021/05/28 07:31:32;;;;;;;12.53;7.30;;;17.10;56.70;;;;;;5117165;28;20250;-87
2021/05/28 07:33:57;;;;;;;9.80;6.88;;;16.80;57.70;;;;;;5117169;28;20650;-87
2021/05/28 07:36:23;;;;;;;6.77;5.77;;;16.50;58.90;;;;;;5117661;28;20213;-87
2021/05/28 07:38:50;;;;;;;18.90;6.17;;;16.30;59.50;;;;;;5124690;28;20196;-85
2021/05/28 07:41:16;;;;;;;11.40;7.60;;;16.20;60.20;;;;;;5137447;28;20520;-87
2021/05/28 07:43:41;;;;;;;9.97;7.00;;;16.30;60.80;;;;;;5117737;28;20205;-87
2021/05/28 07:46:07;;;;;;;9.40;6.60;;;16.40;61.00;;;;;;5116720;28;20175;-86
2021/05/28 07:48:35;;;;;;;10.73;7.45;;;16.40;60.80;;;;;;5118409;28;20262;-84
2021/05/28 07:51:01;;;;;;;8.60;5.97;;;16.70;61.00;;;;;;5117151;28;20172;-85
2021/05/28 07:53:28;;;;;;;15.77;6.60;;;16.80;60.40;;;;;;5117380;28;20195;-84
2021/05/28 07:55:56;;;;;;;15.02;7.85;;;17.00;60.00;;;;;;5116913;28;20465;-84
2021/05/28 07:58:21;;;;;;;9.80;6.72;;;17.20;59.40;;;;;;5117176;28;20747;-85
2021/05/28 08:00:47;;;;;;;11.67;6.00;;;17.40;58.90;;;;;;5118080;28;20301;-85
2021/05/28 08:03:13;;;;;;;11.30;6.73;;;17.30;58.50;;;;;;5116407;28;20195;-87
2021/05/28 08:05:40;;;;;;;9.63;7.17;;;17.30;58.40;;;;;;5111666;28;20426;-88
2021/05/28 08:08:09;;;;;;;16.05;7.20;;;17.40;58.50;;;;;;5096996;28;20179;-88
2021/05/28 08:10:35;;;;;;;16.63;6.03;;;17.50;58.50;;;;;;5096194;28;20187;-84
2021/05/28 08:13:01;;;;;;;13.27;8.70;;;17.60;56.90;;;;;;5097451;28;20201;-84
2021/05/28 08:15:27;;;;;;;9.47;6.00;;;17.70;57.50;;;;;;5097861;28;20207;-84
2021/05/28 08:17:52;;;;;;;30.57;7.57;;;17.70;56.90;;;;;;5097959;28;20208;-85
2021/05/28 08:20:18;;;;;;;7.53;4.77;;;17.60;57.30;;;;;;5099868;28;20406;-84
2021/05/28 08:22:45;;;;;;;7.87;6.40;;;17.70;57.60;;;;;;5098212;28;20558;-83
2021/05/28 08:25:12;;;;;;;10.88;6.60;;;17.60;57.30;;;;;;5098910;28;20418;-84
2021/05/28 08:27:38;;;;;;;7.45;6.65;;;17.80;57.00;;;;;;5099212;28;20167;-84
2021/05/28 08:30:06;;;;;;;13.37;8.20;;;17.90;56.60;;;;;;5096871;28;20179;-88
2021/05/28 08:32:32;;;;;;;9.23;6.80;;;18.00;56.40;;;;;;5080964;28;20259;-86
2021/05/28 08:34:57;;;;;;;9.55;6.40;;;18.00;56.80;;;;;;5096201;28;20235;-86
2021/05/28 08:37:23;;;;;;;9.03;6.20;;;18.00;57.00;;;;;;5096323;28;20191;-90
2021/05/28 08:39:49;;;;;;;9.63;5.28;;;17.50;57.10;;;;;;5084590;28;20183;-86
2021/05/28 08:42:20;;;;;;;7.37;5.20;;;17.10;57.50;;;;;;5073857;28;20196;-85
2021/05/28 08:44:48;;;;;;;5.95;3.97;;;17.20;57.40;;;;;;5075598;28;20157;-86
2021/05/28 08:47:16;;;;;;;7.95;4.45;;;17.20;55.60;;;;;;5080746;28;20176;-84
2021/05/28 08:49:49;;;;;;;8.38;5.28;;;17.30;56.40;;;;;;5116071;28;20206;-86
2021/05/28 08:52:16;;;;;;;6.88;4.50;;;17.60;56.30;;;;;;5106574;28;20195;-86
2021/05/28 08:54:43;;;;;;;9.45;4.57;;;17.30;55.80;;;;;;5093106;28;20249;-86
2021/05/28 08:57:10;;;;;;;12.43;5.10;;;17.40;55.00;;;;;;5094402;28;20176;-86
2021/05/28 08:59:36;;;;;;;7.40;5.35;;;17.20;56.00;;;;;;5095572;28;20168;-85
2021/05/28 09:02:03;;;;;;;7.70;4.28;;;17.10;56.20;;;;;;5094122;28;20180;-85
2021/05/28 09:04:29;;;;;;;7.80;5.00;;;16.60;56.00;;;;;;5094838;28;20175;-85
2021/05/28 09:06:55;;;;;;;11.93;5.27;;;16.50;56.70;;;;;;5076812;28;20268;-85
2021/05/28 09:09:23;;;;;;;7.80;4.70;;;16.70;57.50;;;;;;5075779;28;20305;-84
2021/05/28 09:12:03;;;;;;;10.13;5.38;;;16.30;57.90;;;;;;5073614;28;20441;-85
2021/05/28 09:14:31;;;;;;;11.55;7.20;;;16.30;58.60;;;;;;5073719;28;20179;-84
2021/05/28 09:16:57;;;;;;;15.55;5.57;;;16.20;59.10;;;;;;5074662;28;20669;-84
2021/05/28 09:19:23;;;;;;;7.27;5.57;;;16.30;59.70;;;;;;5074100;28;20176;-85
2021/05/28 09:22:00;;;;;;;8.70;5.05;;;16.40;59.70;;;;;;5073385;28;20632;-84
2021/05/28 09:24:27;;;;;;;8.68;4.72;;;16.30;58.80;;;;;;5073667;28;20267;-85
2021/05/28 09:26:53;;;;;;;13.07;4.90;;;16.40;58.40;;;;;;5073823;28;20180;-85
2021/05/28 09:29:19;;;;;;;8.17;5.53;;;16.40;58.30;;;;;;5074606;28;20187;-84
2021/05/28 09:31:46;;;;;;;21.75;5.60;;;16.20;58.80;;;;;;5074792;28;20620;-84
2021/05/28 09:34:12;;;;;;;7.32;4.50;;;15.80;59.10;;;;;;5074483;28;20283;-85
2021/05/28 09:36:39;;;;;;;6.83;3.57;;;16.00;60.20;;;;;;5074433;28;20730;-85
2021/05/28 09:39:08;;;;;;;10.07;3.60;;;16.20;64.10;;;;;;5074513;28;20226;-85
2021/05/28 09:41:38;;;;;;;7.43;3.38;;;16.30;58.70;;;;;;5074205;28;20172;-85
2021/05/28 09:44:20;;;;;;;8.45;2.60;;;16.20;56.80;;;;;;5074436;28;20196;-84
2021/05/28 09:47:18;;;;;;;2.97;2.67;;;16.30;56.30;;;;;;5073945;28;20594;-85
2021/05/28 09:49:54;;;;;;;6.07;3.22;;;16.10;55.40;;;;;;5062249;28;20176;-84
2021/05/28 09:52:30;;;;;;;4.57;3.17;;;16.30;57.30;;;;;;5073786;28;20211;-85
2021/05/28 09:54:58;;;;;;;6.40;2.90;;;16.10;56.70;;;;;;5074314;28;20205;-85
2021/05/28 09:57:37;;;;;;;5.93;2.97;;;16.50;56.90;;;;;;5078002;28;20181;-84
2021/05/28 10:00:29;;;;;;;3.45;3.15;;;16.20;56.70;;;;;;5092066;28;20180;-84
2021/05/28 10:03:19;;;;;;;4.80;3.13;;;16.50;56.40;;;;;;5074234;28;20597;-84
2021/05/28 10:05:51;;;;;;;6.15;3.15;;;16.50;57.50;;;;;;5095845;28;20207;-85
2021/05/28 10:08:18;;;;;;;11.70;4.10;;;16.50;57.60;;;;;;5099973;28;20168;-83
2021/05/28 10:10:46;;;;;;;5.15;3.88;;;16.60;56.90;;;;;;5099059;28;20252;-83
2021/05/28 10:13:14;;;;;;;6.18;3.50;;;17.00;57.30;;;;;;5098845;28;20227;-83
2021/05/28 10:15:46;;;;;;;5.45;3.28;;;17.30;61.70;;;;;;5098874;28;20203;-85
2021/05/28 10:18:13;;;;;;;4.15;2.95;;;17.50;57.70;;;;;;5096035;28;20191;-84
2021/05/28 10:20:41;;;;;;;3.33;2.95;;;18.10;54.40;;;;;;5095506;28;20669;-84
2021/05/28 10:23:09;;;;;;;5.80;2.53;;;18.20;50.60;;;;;;5096329;28;20204;-84
2021/05/28 10:25:37;;;;;;;2.33;2.00;;;18.10;50.20;;;;;;5096667;28;20278;-83
2021/05/28 10:28:06;;;;;;;2.67;2.22;;;17.80;49.00;;;;;;5098234;28;20211;-83
2021/05/28 10:30:41;;;;;;;4.47;2.40;;;17.60;48.60;;;;;;5097996;28;20183;-84
2021/05/28 10:33:22;;;;;;;8.80;2.95;;;17.60;48.70;;;;;;5100462;28;20202;-84
2021/05/28 10:35:57;;;;;;;3.50;3.20;;;18.10;50.80;;;;;;5102210;28;20242;-84
2021/05/28 10:38:33;;;;;;;2.85;2.65;;;18.30;50.00;;;;;;5101441;28;20721;-84
2021/05/28 10:41:06;;;;;;;3.85;2.30;;;18.70;51.00;;;;;;5080252;28;20176;-85
2021/05/28 10:43:38;;;;;;;4.68;2.90;;;19.00;48.50;;;;;;5081289;28;20192;-84
2021/05/28 10:46:07;;;;;;;5.57;3.33;;;19.30;46.90;;;;;;5081914;28;20202;-84
2021/05/28 10:51:06;;;;;;;3.53;2.55;;;19.50;48.00;;;;;;5080722;28;20198;-84
2021/05/28 10:53:32;;;;;;;7.25;2.55;;;19.80;48.00;;;;;;5080067;28;20192;-84
2021/05/28 10:56:12;;;;;;;7.15;3.30;;;19.70;46.10;;;;;;5082818;28;20276;-84
2021/05/28 10:58:53;;;;;;;6.75;3.35;;;19.20;44.90;;;;;;5082264;28;20188;-84
2021/05/28 11:02:04;;;;;;;6.38;3.72;;;19.30;45.00;;;;;;5083172;28;20188;-84
2021/05/28 11:04:31;;;;;;;7.07;1.98;;;19.10;45.80;;;;;;5089585;28;20207;-83
2021/05/28 11:07:00;;;;;;;4.25;2.33;;;19.20;46.70;;;;;;5112669;28;20180;-85
2021/05/28 11:09:49;;;;;;;3.15;2.85;;;19.40;47.60;;;;;;5099235;28;20185;-84
2021/05/28 11:12:26;;;;;;;25.55;4.82;;;19.20;45.30;;;;;;5092524;28;20222;-83
2021/05/28 11:15:03;;;;;;;3.30;3.00;;;19.40;45.50;;;;;;5093554;28;20188;-82
2021/05/28 11:17:30;;;;;;;5.68;3.00;;;19.00;44.40;;;;;;5091002;28;20537;-84
2021/05/28 11:19:57;;;;;;;7.28;4.13;;;19.00;45.70;;;;;;5099774;28;20212;-84
2021/05/28 11:22:38;;;;;;;16.20;4.75;;;18.90;46.10;;;;;;5083245;28;20284;-83
2021/05/28 11:25:24;;;;;;;12.35;3.95;;;19.10;47.20;;;;;;5084897;28;20187;-82
2021/05/28 11:27:57;;;;;;;7.30;3.50;;;19.20;47.40;;;;;;5087515;28;20219;-83
2021/05/28 11:30:50;;;;;;;6.95;3.45;;;19.30;46.90;;;;;;5083691;28;20184;-83
2021/05/28 11:33:37;;;;;;;7.63;4.35;;;19.50;47.70;;;;;;5082916;28;20287;-83
2021/05/28 11:36:43;;;;;;;31.98;5.78;;;19.50;46.10;;;;;;5084223;28;20203;-83
2021/05/28 11:39:19;;;;;;;11.23;3.70;;;19.50;46.10;;;;;;5087747;28;20152;-83
2021/05/28 11:41:49;;;;;;;14.85;4.40;;;19.60;49.20;;;;;;5086735;28;20263;-82
2021/05/28 11:44:20;;;;;;;21.88;4.60;;;19.80;48.20;;;;;;5092139;28;20627;-83
2021/05/28 11:46:49;;;;;;;5.95;3.65;;;19.90;47.20;;;;;;5102730;28;20185;-83
2021/05/28 11:49:16;;;;;;;12.60;5.00;;;20.20;47.70;;;;;;5095327;28;20620;-83
2021/05/28 11:51:43;;;;;;;22.30;7.45;;;20.20;46.00;;;;;;5089749;28;20199;-83
2021/05/28 11:54:19;;;;;;;8.60;4.28;;;20.50;45.40;;;;;;5092201;28;20205;-82
2021/05/28 11:56:55;;;;;;;9.70;5.05;;;20.60;46.70;;;;;;5098100;28;20199;-83
2021/05/28 11:59:22;;;;;;;14.02;5.43;;;20.20;43.60;;;;;;5116098;28;20167;-83
2021/05/28 12:01:47;;;;;;;14.38;5.97;;;20.40;43.90;;;;;;5108478;28;20177;-84
2021/05/28 12:04:17;;;;;;;7.17;5.60;;;20.50;44.20;;;;;;5096930;28;20200;-82
2021/05/28 12:06:43;;;;;;;6.65;5.95;;;20.00;44.80;;;;;;5137328;28;20179;-82
2021/05/28 12:09:09;;;;;;;11.67;5.27;;;19.80;45.00;;;;;;5139076;28;20200;-82
2021/05/28 12:11:34;;;;;;;7.37;5.37;;;19.80;46.00;;;;;;5137831;28;20459;-83
2021/05/28 12:14:00;;;;;;;7.53;5.33;;;19.80;46.20;;;;;;5138380;28;20508;-82
2021/05/28 12:16:26;;;;;;;7.13;4.40;;;19.70;46.40;;;;;;5118578;28;20231;-83
2021/05/28 12:18:51;;;;;;;10.50;5.40;;;19.70;45.60;;;;;;5111582;28;20756;-83
2021/05/28 12:21:19;;;;;;;8.60;6.30;;;19.80;45.80;;;;;;5101777;28;20197;-83
2021/05/28 12:23:50;;;;;;;9.05;6.35;;;19.70;45.30;;;;;;5101789;28;20325;-82
2021/05/28 12:26:20;;;;;;;7.60;5.88;;;19.70;45.60;;;;;;5103430;28;20167;-82
2021/05/28 12:28:56;;;;;;;10.85;5.50;;;19.80;45.60;;;;;;5103278;28;20700;-83
2021/05/28 12:31:33;;;;;;;10.52;5.88;;;19.80;45.70;;;;;;5101777;28;20175;-82
2021/05/28 12:34:13;;;;;;;7.90;5.15;;;19.70;46.00;;;;;;5103054;28;20190;-83
2021/05/28 12:36:44;;;;;;;8.75;6.07;;;19.60;45.60;;;;;;5103387;28;20207;-83
2021/05/28 12:39:10;;;;;;;11.00;5.45;;;19.60;45.70;;;;;;5098357;28;20168;-83
2021/05/28 12:41:38;;;;;;;6.57;5.72;;;19.80;46.00;;;;;;5083498;28;20199;-83